Flight Track Log - Related Links

Times and Time Zones

All times are in EDT time to prevent confusion due to time zone crossing. See the SKQ45 flight status page for this flight to view local times or setup timezone preferences in your user account.

Time Position Orientation Groundspeed Altitude Reporting Facility
EDT Latitude Longitude Course Direction KTS MPH feet Rate Location/Type
Mon 08:00:43 PM 36.0847 -79.7892 302° West 167 192 8,900  Level Atlanta Center
Mon 08:01:43 PM 36.0928 -79.8375 282° West 167 192 10,300 1,300 Climbing Atlanta Center
Mon 08:02:00 PM 36.1121 -79.9228 282° West  Level FlightAware Approximate
Mon 08:02:43 PM 36.0986 -79.8911 278° West 162 186 11,500  Level Atlanta Center
Mon 08:03:00 PM 36.1208 -79.9998 276° West  Level FlightAware Approximate
Mon 08:03:43 PM 36.1092 -79.9497 283° West 167 192 12,700  Level Atlanta Center
Mon 08:04:00 PM 36.1273 -80.0772 276° West  Level FlightAware Approximate
Mon 08:04:43 PM 36.1153 -80.0086 277° West 167 192 13,800  Level Atlanta Center
Mon 08:05:00 PM 36.1353 -80.1540 302° West  Level FlightAware Approximate
Mon 08:05:43 PM 36.1256 -80.0747 281° West 167 192 15,000  Level Atlanta Center
Mon 08:06:43 PM 36.1339 -80.1386 279° West 178 205 16,000 500 Climbing Atlanta Center
Mon 08:07:43 PM 36.1444 -80.2103 280° West 196 226 16,000  Level Atlanta Center
Mon 08:08:43 PM 36.1575 -80.2919 281° West 223 257 16,000 150 Level Atlanta Center
Mon 08:09:43 PM 36.1661 -80.3661 278° West 243 280 16,300 600 Climbing Atlanta Center
Mon 08:10:43 PM 36.1786 -80.4400 282° West 238 274 17,200 800 Climbing Atlanta Center
Mon 08:11:43 PM 36.1892 -80.5142 280° West 227 261 17,900 750 Climbing Atlanta Center
Mon 08:12:43 PM 36.1953 -80.5833 276° West 216 249 18,700 850 Climbing Atlanta Center
Mon 08:13:43 PM 36.2078 -80.6550 282° West 216 249 19,600 650 Climbing Atlanta Center
Mon 08:14:43 PM 36.2200 -80.7239 282° West 216 249 20,000 200 Climbing Atlanta Center
Mon 08:15:43 PM 36.2306 -80.8033 279° West 226 260 20,000  Level Atlanta Center
Mon 08:16:43 PM 36.2431 -80.8825 281° West 240 276 20,000  Level Atlanta Center
Mon 08:17:43 PM 36.2533 -80.9672 279° West 245 282 20,000  Level Atlanta Center
Mon 08:18:43 PM 36.2639 -81.0542 279° West 245 282 20,000  Level Atlanta Center
Mon 08:19:43 PM 36.2764 -81.1389 280° West 256 295 20,000  Level Atlanta Center
Mon 08:20:43 PM 36.2889 -81.2311 280° West 256 295 20,000  Level Atlanta Center
Mon 08:21:43 PM 36.3011 -81.3131 281° West 256 295 20,000  Level Atlanta Center
Mon 08:22:43 PM 36.3114 -81.3978 279° West 256 295 20,000  Level Atlanta Center
Mon 08:23:43 PM 36.3236 -81.4797 281° West 256 295 20,000  Level Atlanta Center
Mon 08:24:43 PM 36.3336 -81.5672 278° West 256 295 20,000  Level Atlanta Center
Mon 08:25:43 PM 36.3436 -81.6492 279° West 256 295 20,000  Level Atlanta Center
Mon 08:26:43 PM 36.3558 -81.7342 280° West 256 295 20,000  Level Atlanta Center
Mon 08:27:43 PM 36.3678 -81.8214 280° West 256 295 20,000  Level Atlanta Center
Mon 08:28:43 PM 36.3775 -81.8983 279° West 256 295 20,000  Level Atlanta Center
Mon 08:29:43 PM 36.3872 -81.9806 278° West 256 295 20,000  Level Atlanta Center
Mon 08:30:43 PM 36.3992 -82.0681 280° West 256 295 20,000  Level Atlanta Center
Mon 08:31:43 PM 36.4089 -82.1531 278° West 251 289 20,000  Level Atlanta Center
Mon 08:32:43 PM 36.4206 -82.2378 280° West 257 296 20,000  Level Atlanta Center
Mon 08:33:43 PM 36.4300 -82.3228 278° West 257 296 20,000  Level Atlanta Center
Mon 08:34:43 PM 36.4417 -82.4103 279° West 257 296 20,000  Level Atlanta Center
Mon 08:35:43 PM 36.4531 -82.4925 280° West 257 296 20,000  Level Atlanta Center
Mon 08:36:43 PM 36.4606 -82.5778 276° West 257 296 20,000  Level Atlanta Center
Mon 08:37:43 PM 36.4719 -82.6628 279° West 257 296 20,000  Level Atlanta Center
Mon 08:38:43 PM 36.4833 -82.7478 279° West 257 296 20,000  Level Atlanta Center
Mon 08:39:43 PM 36.4903 -82.8328 276° West 257 296 20,000  Level Atlanta Center
Mon 08:40:43 PM 36.5036 -82.9281 280° West 257 296 20,000  Level Atlanta Center
Mon 08:41:43 PM 36.5128 -83.0133 278° West 257 296 20,000  Level Atlanta Center
Mon 08:42:43 PM 36.5239 -83.0983 279° West 257 296 20,000  Level Atlanta Center
Mon 08:45:05 PM 36.5489 -83.2900 279° West 247 284 20,000  Level Indianapolis Center
Mon 08:46:07 PM 36.5589 -83.3750 278° West 246 283 20,000  Level Indianapolis Center
Mon 08:47:08 PM 36.5683 -83.4597 278° West 247 284 20,000  Level Indianapolis Center
Mon 08:48:10 PM 36.5786 -83.5428 279° West 244 281 20,000  Level Indianapolis Center
Mon 08:49:11 PM 36.5900 -83.6422 278° West 248 285 20,000  Level Indianapolis Center
Mon 08:50:13 PM 36.5992 -83.7264 278° West 246 283 20,000  Level Indianapolis Center
Mon 08:51:14 PM 36.6092 -83.8114 278° West 248 285 20,000  Level Indianapolis Center
Mon 08:53:17 PM 36.6278 -83.9831 278° West 249 287 20,000  Level Indianapolis Center
Mon 08:54:18 PM 36.6372 -84.0681 278° West 248 285 20,000  Level Indianapolis Center
Mon 08:55:20 PM 36.6464 -84.1519 278° West 245 282 20,000  Level Indianapolis Center
Mon 08:56:21 PM 36.6564 -84.2356 279° West 244 281 20,000  Level Indianapolis Center
Mon 08:57:23 PM 36.6647 -84.3206 277° West 247 284 20,000  Level Indianapolis Center
Mon 08:58:24 PM 36.6758 -84.4186 278° West 246 283 20,000  Level Indianapolis Center
Mon 08:59:26 PM 36.6847 -84.5028 278° West 245 282 20,000  Level Indianapolis Center
Mon 09:00:27 PM 36.6928 -84.5783 278° West 246 283 20,000  Level Indianapolis Center
Mon 09:01:28 PM 36.7006 -84.6619 277° West 244 281 20,000  Level Indianapolis Center
Mon 09:02:29 PM 36.7125 -84.7642 278° West 247 284 20,000  Level Indianapolis Center
Mon 09:03:31 PM 36.7200 -84.8483 276° West 245 282 20,000  Level Indianapolis Center
Mon 09:04:32 PM 36.7292 -84.9331 278° West 246 283 20,000  Level Indianapolis Center
Mon 09:05:34 PM 36.7383 -85.0175 278° West 246 283 20,000  Level Indianapolis Center
Mon 09:06:35 PM 36.7469 -85.1022 277° West 247 284 20,000  Level Indianapolis Center
Mon 09:07:36 PM 36.7547 -85.1856 277° West 243 280 20,000  Level Indianapolis Center
Mon 09:08:37 PM 36.7628 -85.2694 277° West 244 281 20,000  Level Indianapolis Center
Mon 09:09:39 PM 36.7711 -85.3536 277° West 245 282 20,000  Level Indianapolis Center
Mon 09:10:09 PM 36.7747 -85.4094 275° West 255 293 20,000  Level Memphis Center
Mon 09:11:09 PM 36.7842 -85.4867 279° West 255 293 20,000  Level Memphis Center
Mon 09:12:09 PM 36.7936 -85.5717 278° West 255 293 20,000  Level Memphis Center
Mon 09:13:09 PM 36.8031 -85.6567 278° West 255 293 20,000  Level Memphis Center
Mon 09:14:09 PM 36.8108 -85.7494 276° West 255 293 20,000  Level Memphis Center
Mon 09:15:09 PM 36.8181 -85.8344 276° West 255 293 20,000  Level Memphis Center
Mon 09:16:09 PM 36.8253 -85.9169 276° West 250 288 20,000  Level Memphis Center
Mon 09:17:09 PM 36.8344 -86.0022 278° West 250 288 20,000  Level Memphis Center
Mon 09:18:09 PM 36.8417 -86.0847 276° West 250 288 20,000  Level Memphis Center
Mon 09:19:09 PM 36.8508 -86.1697 278° West 250 288 20,000  Level Memphis Center
Mon 09:20:09 PM 36.8578 -86.2522 276° West 250 288 20,000  Level Memphis Center
Mon 09:21:09 PM 36.8667 -86.3400 277° West 250 288 20,000  Level Memphis Center
Mon 09:22:09 PM 36.8736 -86.4228 276° West 250 288 20,000  Level Memphis Center
Mon 09:23:09 PM 36.8825 -86.5103 277° West 250 288 20,000  Level Memphis Center
Mon 09:24:09 PM 36.8872 -86.5958 274° West 250 288 20,000  Level Memphis Center
Mon 09:25:09 PM 36.8961 -86.6808 277° West 250 288 20,000  Level Memphis Center
Mon 09:26:09 PM 36.9025 -86.7558 276° West 250 288 20,000  Level Memphis Center
Mon 09:27:09 PM 36.9111 -86.8436 277° West 250 288 20,000  Level Memphis Center
Mon 09:28:09 PM 36.9178 -86.9264 276° West 250 288 20,000  Level Memphis Center
Mon 09:29:09 PM 36.9242 -87.0144 275° West 250 288 20,000 -250 Level Memphis Center
Mon 09:30:09 PM 36.9328 -87.0997 277° West 250 288 19,500 -950 Descending Memphis Center
Mon 09:31:09 PM 36.9414 -87.1928 277° West 262 302 18,100 -1,500 Descending Memphis Center
Mon 09:32:09 PM 36.9481 -87.2886 275° West 273 314 16,500 -1,650 Descending Memphis Center
Mon 09:33:09 PM 36.9544 -87.3844 275° West 273 314 14,800 -1,600 Descending Memphis Center
Mon 09:34:09 PM 36.9633 -87.4881 276° West 273 314 13,300 -1,500 Descending Memphis Center
Mon 09:35:09 PM 36.9717 -87.5836 276° West 273 314 11,800 -1,550 Descending Memphis Center
Mon 09:36:09 PM 36.9781 -87.6794 275° West 281 323 10,200 -1,650 Descending Memphis Center
Mon 09:37:09 PM 36.9861 -87.7728 276° West 276 318 8,500 -1,600 Descending Memphis Center
Mon 09:38:09 PM 36.9942 -87.8608 277° West 268 308 7,000 -1,200 Descending Memphis Center
Mon 09:39:09 PM 36.9981 -87.9489 273° West 263 303 6,100 -450 Descending Memphis Center
Mon 09:40:09 PM 37.0058 -88.0267 277° West 240 276 6,100  Level Memphis Center
Mon 09:41:09 PM 37.0094 -88.1097 273° West 235 270 6,100 -250 Level Memphis Center
Mon 09:42:09 PM 37.0211 -88.1847 281° West 235 270 5,600 -850 Descending Memphis Center
Mon 09:43:09 PM 37.0392 -88.2675 285° West 240 276 4,400 -800 Descending Memphis Center
Mon 09:44:09 PM 37.0303 -88.3508 262° West 240 276 4,000 -400 Descending Memphis Center
Mon 09:45:09 PM 37.0253 -88.4314 266° West 240 276 3,600 -400 Descending Memphis Center
Mon 09:46:09 PM 37.0181 -88.5097 263° West 235 270 3,200 -400 Descending Memphis Center
Mon 09:47:09 PM 37.0169 -88.5797 269° West 225 259 2,800 -400 Descending Memphis Center
Mon 09:48:09 PM 37.0075 -88.6425 259° West 202 232 2,400 -400 Descending Memphis Center
Mon 09:49:09 PM 37.0083 -88.6994 271° West 188 216 2,000 -550 Descending Memphis Center
Mon 09:50:09 PM 37.0275 -88.7433 299° West 161 185 1,300 -700 Descending Memphis Center
Mon 09:51:09 PM 37.0508 -88.7636 325° Northwest 122 140 600 -700 Descending Memphis Center

Login

Don't have an account? Register now (free) for customized features, flight alerts, and more!